BUM weather

Butler Memorial Airport
Butler, Missouri, United States

Public forecast

Using degrees Fahrenheit for public forecast. Weather courtesy of forecast.io.

METAR (pilot weather report)

Closest report is Clinton Memorial Airport, 31.2 nm (57.7 km) E. Retrieved 2019/08/20 01:35 UTC (53 minutes ago):

KGLY 200135Z AUTO 00000KT 10SM CLR 29/26 A2995 RMK AO2

TAF (pilot weather forecast)

Forecast is more than 12 hours old.

Closest forecast is New Century Aircenter Airport, 41.5 nm (76.9 km) NW. Retrieved 2019/08/19 00:22 UTC (1 day ago):

TAF KIXD 192320Z 2000/2024 15008KT P6SM SCT150 FM201500 20008KT P6SM BKN200